createdAt,value
2023-01-01T00:00:52.793Z,69.40
2023-01-01T00:03:22.001Z,69.50
2023-01-01T00:06:10.041Z,69.40
2023-01-01T00:08:42.211Z,69.40
2023-01-01T00:11:12.225Z,69.30
2023-01-01T00:13:42.957Z,69.50
2023-01-01T00:16:14.255Z,69.40
2023-01-01T00:18:43.777Z,69.50
2023-01-01T00:21:15.657Z,69.50
2023-01-01T00:23:45.057Z,69.50
2023-01-01T00:26:16.728Z,69.30
2023-01-01T00:28:47.796Z,69.50
2023-01-01T00:31:18.656Z,69.40
2023-01-01T00:33:51.205Z,69.50
2023-01-01T00:36:23.691Z,69.50
2023-01-01T00:38:53.423Z,69.50
2023-01-01T00:41:22.936Z,69.50
2023-01-01T00:43:52.756Z,69.60
2023-01-01T00:46:22.263Z,69.70
2023-01-01T00:48:51.390Z,69.60
2023-01-01T00:51:22.042Z,69.70
2023-01-01T00:53:51.091Z,69.80
2023-01-01T00:56:20.256Z,69.90
2023-01-01T00:59:00.762Z,70.00
2023-01-01T01:01:31.151Z,70.00
2023-01-01T01:04:00.433Z,69.90
2023-01-01T01:06:31.024Z,70.30
2023-01-01T01:09:00.048Z,70.10
2023-01-01T01:11:29.467Z,70.20
2023-01-01T01:13:58.736Z,70.30
2023-01-01T01:16:31.102Z,70.20
2023-01-01T01:19:02.258Z,70.20
2023-01-01T01:21:34.413Z,70.20
2023-01-01T01:24:04.853Z,70.20
2023-01-01T01:26:36.606Z,70.20
2023-01-01T01:29:05.978Z,70.20
2023-01-01T01:31:35.922Z,70.20
2023-01-01T01:34:06.121Z,71.00
2023-01-01T01:36:36.588Z,70.20
2023-01-01T01:39:05.653Z,70.10
2023-01-01T01:41:34.837Z,71.00
2023-01-01T01:44:08.398Z,70.10
2023-01-01T01:46:42.580Z,70.20
2023-01-01T01:49:16.539Z,70.20
2023-01-01T01:51:47.635Z,70.20
2023-01-01T01:54:23.231Z,70.20
2023-01-01T01:56:56.628Z,70.40
2023-01-01T01:59:28.795Z,70.20
2023-01-01T02:01:58.647Z,70.30
2023-01-01T02:04:28.380Z,70.30
2023-01-01T02:06:59.074Z,70.30
2023-01-01T02:09:28.774Z,70.30
2023-01-01T02:11:59.123Z,70.20
2023-01-01T02:14:28.288Z,70.30
2023-01-01T02:17:04.782Z,70.20
2023-01-01T02:19:45.601Z,70.30
2023-01-01T02:22:22.927Z,70.40
2023-01-01T02:25:00.980Z,70.20
2023-01-01T02:27:44.191Z,70.30
2023-01-01T02:30:15.340Z,70.20
2023-01-01T02:32:47.641Z,70.20
2023-01-01T02:35:38.596Z,70.30
2023-01-01T02:38:11.832Z,70.30
2023-01-01T02:40:45.167Z,70.20
2023-01-01T02:43:14.432Z,70.20
2023-01-01T02:45:44.939Z,70.10
2023-01-01T02:48:39.948Z,70.20
2023-01-01T02:51:20.424Z,70.40
2023-01-01T02:53:54.183Z,70.30
2023-01-01T02:56:35.111Z,70.20
2023-01-01T02:59:38.205Z,70.20
2023-01-01T03:02:18.771Z,70.40
2023-01-01T03:05:02.942Z,71.00
2023-01-01T03:07:41.697Z,70.30
2023-01-01T03:10:16.343Z,70.30
2023-01-01T03:12:53.022Z,70.30
2023-01-01T03:15:30.212Z,70.50
2023-01-01T03:18:04.321Z,70.20
2023-01-01T03:20:37.354Z,70.20
2023-01-01T03:23:10.417Z,70.50
2023-01-01T03:25:43.869Z,70.50
2023-01-01T03:28:16.206Z,70.50
2023-01-01T03:30:47.838Z,70.40
2023-01-01T03:33:22.373Z,70.50
2023-01-01T03:35:54.892Z,70.70
2023-01-01T03:38:31.689Z,70.80
2023-01-01T03:41:05.304Z,70.90
2023-01-01T03:43:49.292Z,71.00
2023-01-01T03:46:22.369Z,71.10
2023-01-01T03:49:03.704Z,71.20
2023-01-01T03:51:58.231Z,71.30
2023-01-01T03:54:36.221Z,71.60
2023-01-01T03:57:11.685Z,71.50
2023-01-01T03:59:45.412Z,71.40
2023-01-01T04:02:19.973Z,71.50
2023-01-01T04:04:50.941Z,71.50
2023-01-01T04:07:20.454Z,71.50
2023-01-01T04:09:51.440Z,71.50
2023-01-01T04:12:21.157Z,71.50
2023-01-01T04:14:50.072Z,71.50
2023-01-01T04:17:19.081Z,71.40
2023-01-01T04:19:54.690Z,71.50
2023-01-01T04:22:25.748Z,71.50
2023-01-01T04:24:54.824Z,71.50
2023-01-01T04:27:24.004Z,71.50
2023-01-01T04:29:52.717Z,71.50
2023-01-01T04:32:22.109Z,71.60
2023-01-01T04:34:51.390Z,71.60
2023-01-01T04:37:20.374Z,71.60
2023-01-01T04:39:50.754Z,71.50
2023-01-01T04:42:20.197Z,71.50
2023-01-01T04:44:49.250Z,71.40
2023-01-01T04:47:18.247Z,71.40
2023-01-01T04:49:48.355Z,71.40
2023-01-01T04:52:17.767Z,71.40
2023-01-01T04:54:46.986Z,71.40
2023-01-01T04:57:17.470Z,71.40
2023-01-01T04:59:47.354Z,71.40
2023-01-01T05:02:16.818Z,71.40
2023-01-01T05:04:46.992Z,71.40
2023-01-01T05:07:15.996Z,71.40
2023-01-01T05:09:44.949Z,71.40
2023-01-01T05:12:15.072Z,71.40
2023-01-01T05:14:45.465Z,71.40
2023-01-01T05:17:14.895Z,71.40
2023-01-01T05:19:43.885Z,71.40
2023-01-01T05:22:13.199Z,71.40
2023-01-01T05:24:42.176Z,71.40
2023-01-01T05:27:11.118Z,71.20
2023-01-01T05:29:40.199Z,71.30
2023-01-01T05:37:06.818Z,71.20
2023-01-01T05:39:37.134Z,71.20
2023-01-01T05:42:06.250Z,71.30
2023-01-01T05:44:35.325Z,71.30
2023-01-01T05:47:04.241Z,71.40
2023-01-01T05:49:36.632Z,71.30
2023-01-01T05:52:06.128Z,71.50
2023-01-01T05:54:35.065Z,71.30
2023-01-01T05:57:04.012Z,71.50
2023-01-01T05:59:32.952Z,71.50
2023-01-01T06:02:01.905Z,71.50
2023-01-01T06:04:31.079Z,71.50
2023-01-01T06:07:01.506Z,71.60
2023-01-01T06:09:30.296Z,71.60
2023-01-01T06:11:59.222Z,71.60
2023-01-01T06:14:28.181Z,72.30
2023-01-01T06:16:57.048Z,71.50
2023-01-01T06:19:26.033Z,71.40
2023-01-01T06:21:55.085Z,71.30
2023-01-01T06:24:25.404Z,71.50
2023-01-01T06:26:54.042Z,71.50
2023-01-01T06:29:22.833Z,71.40
2023-01-01T06:31:51.981Z,71.50
2023-01-01T06:34:20.945Z,71.50
2023-01-01T06:36:49.880Z,71.50
2023-01-01T06:39:18.748Z,72.30
2023-01-01T06:41:48.937Z,71.60
2023-01-01T06:44:17.805Z,71.50
2023-01-01T06:46:46.671Z,71.50
2023-01-01T06:49:15.604Z,71.30
2023-01-01T06:51:45.180Z,71.30
2023-01-01T06:54:14.088Z,71.20
2023-01-01T06:56:43.105Z,71.00
2023-01-01T06:59:13.585Z,70.70
2023-01-01T07:01:44.720Z,70.50
2023-01-01T07:04:15.910Z,70.70
2023-01-01T07:06:45.062Z,71.00
2023-01-01T07:09:14.248Z,71.30
2023-01-01T07:11:44.146Z,71.10
2023-01-01T07:14:14.733Z,71.20
2023-01-01T07:16:43.478Z,71.30
2023-01-01T07:19:12.527Z,71.40
2023-01-01T07:21:44.374Z,71.40
2023-01-01T07:24:15.177Z,71.50
2023-01-01T07:26:44.278Z,71.60
2023-01-01T07:29:14.905Z,71.70
2023-01-01T07:31:45.197Z,71.70
2023-01-01T07:34:16.060Z,71.80
2023-01-01T07:36:44.817Z,71.90
2023-01-01T07:39:13.718Z,71.80
2023-01-01T07:41:42.591Z,71.80
2023-01-01T07:44:12.140Z,71.60
2023-01-01T07:46:42.475Z,71.50
2023-01-01T07:49:11.476Z,71.60
2023-01-01T07:51:40.480Z,71.50
2023-01-01T07:54:09.556Z,71.50
2023-01-01T07:56:38.424Z,71.30
2023-01-01T07:59:07.384Z,71.40
2023-01-01T08:01:37.816Z,71.30
2023-01-01T08:04:08.544Z,71.30
2023-01-01T08:06:39.077Z,71.10
2023-01-01T08:09:08.749Z,70.90
2023-01-01T08:11:37.538Z,71.00
2023-01-01T08:14:08.072Z,71.00
2023-01-01T08:16:37.179Z,71.00
2023-01-01T08:19:07.761Z,70.80
2023-01-01T08:21:37.168Z,71.00
2023-01-01T08:24:06.681Z,71.10
2023-01-01T08:26:37.292Z,71.00
2023-01-01T08:29:08.038Z,70.80
2023-01-01T08:31:37.154Z,70.60
2023-01-01T08:34:06.201Z,70.50
2023-01-01T08:36:37.761Z,70.70
2023-01-01T08:39:06.875Z,70.70
2023-01-01T08:41:36.061Z,70.40
2023-01-01T08:44:05.106Z,70.20
2023-01-01T08:46:34.263Z,70.10
2023-01-01T08:49:03.290Z,70.20
2023-01-01T08:51:32.237Z,69.90
2023-01-01T08:54:02.911Z,69.90
2023-01-01T08:56:32.164Z,69.60
2023-01-01T08:59:04.514Z,69.40
2023-01-01T09:01:37.334Z,69.50
2023-01-01T09:04:13.575Z,69.40
2023-01-01T09:06:44.521Z,69.20
2023-01-01T09:09:14.815Z,69.30
2023-01-01T09:11:51.981Z,69.10
2023-01-01T09:14:21.177Z,69.00
2023-01-01T09:16:53.592Z,69.10
2023-01-01T09:19:22.893Z,68.90
2023-01-01T09:21:52.106Z,68.90
2023-01-01T09:24:22.807Z,68.90
2023-01-01T09:26:52.217Z,68.90
2023-01-01T09:29:21.919Z,68.80
2023-01-01T09:31:50.952Z,69.00
2023-01-01T09:34:20.103Z,69.00
2023-01-01T09:36:49.165Z,68.90
2023-01-01T09:39:19.792Z,69.00
2023-01-01T09:42:05.024Z,69.00
2023-01-01T09:45:04.054Z,68.60
2023-01-01T09:47:39.222Z,68.30
2023-01-01T09:50:13.902Z,68.10
2023-01-01T09:52:49.967Z,67.80
2023-01-01T09:55:28.194Z,67.10
2023-01-01T09:57:59.331Z,66.10
2023-01-01T10:00:29.976Z,65.50
2023-01-01T10:03:25.139Z,65.10
2023-01-01T10:06:02.193Z,64.80
2023-01-01T10:08:42.232Z,64.60
2023-01-01T10:11:18.891Z,64.00
2023-01-01T10:13:50.855Z,63.70
2023-01-01T10:16:31.589Z,63.50
2023-01-01T10:19:08.570Z,62.90
2023-01-01T10:21:47.117Z,62.80
2023-01-01T10:24:32.212Z,62.50
2023-01-01T10:27:04.416Z,62.20
2023-01-01T10:29:42.077Z,62.70
2023-01-01T10:32:21.427Z,62.40
2023-01-01T10:34:52.314Z,62.50
2023-01-01T10:37:21.823Z,62.50
2023-01-01T10:39:51.484Z,62.80
2023-01-01T10:42:20.593Z,62.60
2023-01-01T10:44:54.723Z,62.70
2023-01-01T10:47:27.043Z,62.50
2023-01-01T10:49:58.078Z,62.30
2023-01-01T10:52:31.558Z,62.30
2023-01-01T10:55:01.207Z,62.60
2023-01-01T10:57:35.940Z,62.30
2023-01-01T11:00:22.950Z,61.40
2023-01-01T11:03:17.502Z,61.70
2023-01-01T11:06:03.063Z,61.60
2023-01-01T11:08:34.271Z,61.50
2023-01-01T11:11:04.822Z,61.30
2023-01-01T11:13:35.013Z,60.50
2023-01-01T11:16:12.985Z,59.60
2023-01-01T11:18:42.510Z,59.30
2023-01-01T11:21:11.808Z,59.30
2023-01-01T11:23:41.445Z,59.20
2023-01-01T11:26:21.978Z,59.30
2023-01-01T11:29:01.729Z,59.30
2023-01-01T11:31:37.338Z,59.30
2023-01-01T11:34:21.451Z,59.50
2023-01-01T11:36:50.618Z,59.50
2023-01-01T11:39:25.240Z,59.40
2023-01-01T11:41:57.552Z,59.60
2023-01-01T11:44:34.522Z,59.90
2023-01-01T11:47:08.776Z,59.70
2023-01-01T11:49:37.868Z,60.10
2023-01-01T11:52:30.043Z,59.30
2023-01-01T11:55:16.061Z,58.70
2023-01-01T11:57:52.478Z,57.90
2023-01-01T12:00:21.795Z,57.20
2023-01-01T12:03:01.113Z,55.60
2023-01-01T12:05:44.731Z,54.20
2023-01-01T12:08:24.095Z,53.60
2023-01-01T12:10:59.269Z,53.20
2023-01-01T12:13:35.736Z,52.60
2023-01-01T12:16:14.035Z,52.20
2023-01-01T12:18:48.484Z,50.90
2023-01-01T12:21:23.778Z,50.60
2023-01-01T12:23:53.908Z,50.60
2023-01-01T12:26:26.925Z,51.40
2023-01-01T12:29:25.417Z,52.10
2023-01-01T12:32:03.589Z,51.80
2023-01-01T12:34:42.912Z,52.00
2023-01-01T12:37:20.919Z,52.20
2023-01-01T12:40:17.188Z,51.60
2023-01-01T12:42:57.903Z,52.00
2023-01-01T12:45:45.158Z,52.50
2023-01-01T12:48:43.602Z,52.30
2023-01-01T12:51:27.996Z,51.70
2023-01-01T12:54:13.198Z,52.30
2023-01-01T12:56:50.009Z,52.20
2023-01-01T12:59:27.630Z,51.80
2023-01-01T13:01:59.723Z,51.60
2023-01-01T13:04:29.554Z,52.00
2023-01-01T13:07:05.782Z,51.90
2023-01-01T13:09:37.109Z,52.10
2023-01-01T13:12:09.446Z,52.40
2023-01-01T13:14:40.385Z,52.50
2023-01-01T13:17:20.389Z,52.80
2023-01-01T13:19:50.606Z,52.70
2023-01-01T13:22:48.584Z,52.90
2023-01-01T13:25:23.554Z,52.90
2023-01-01T13:28:11.908Z,52.90
2023-01-01T13:30:52.014Z,53.20
2023-01-01T13:33:29.508Z,53.10
2023-01-01T13:36:31.532Z,53.20
2023-01-01T13:39:02.595Z,53.70
2023-01-01T13:41:36.734Z,53.50
2023-01-01T13:44:18.490Z,53.70
2023-01-01T13:47:02.649Z,53.60
2023-01-01T13:49:46.808Z,53.60
2023-01-01T13:52:35.404Z,53.50
2023-01-01T13:55:49.437Z,53.60
2023-01-01T13:58:52.555Z,53.80
2023-01-01T14:01:43.329Z,54.20
2023-01-01T14:04:38.557Z,53.80
2023-01-01T14:07:49.508Z,53.90
2023-01-01T14:10:29.553Z,53.80
2023-01-01T14:13:16.615Z,53.80
2023-01-01T14:15:54.291Z,54.10
2023-01-01T14:18:37.647Z,53.90
2023-01-01T14:21:10.672Z,54.00
2023-01-01T14:23:42.701Z,54.20
2023-01-01T14:26:14.705Z,54.30
2023-01-01T14:28:46.076Z,54.30
2023-01-01T14:31:17.544Z,54.30
2023-01-01T14:33:47.164Z,54.50
2023-01-01T14:36:21.267Z,54.60
2023-01-01T14:38:52.267Z,54.90
2023-01-01T14:41:30.599Z,55.10
2023-01-01T14:44:08.306Z,55.10
2023-01-01T14:46:42.031Z,55.20
2023-01-01T14:49:13.487Z,55.30
2023-01-01T14:51:46.338Z,55.40
2023-01-01T14:54:19.457Z,55.60
2023-01-01T14:56:50.771Z,55.40
2023-01-01T14:59:26.167Z,55.50
2023-01-01T15:02:03.307Z,55.60
2023-01-01T15:04:32.764Z,55.70
2023-01-01T15:07:02.581Z,55.60
2023-01-01T15:09:33.388Z,55.70
2023-01-01T15:12:02.528Z,55.70
2023-01-01T15:14:37.469Z,55.70
2023-01-01T15:17:08.377Z,55.80
2023-01-01T15:19:42.175Z,55.80
2023-01-01T15:22:13.065Z,55.90
2023-01-01T15:24:45.743Z,55.90
2023-01-01T15:27:23.937Z,55.90
2023-01-01T15:29:56.864Z,55.90
2023-01-01T15:32:28.253Z,55.80
2023-01-01T15:34:59.239Z,56.00
2023-01-01T15:37:35.114Z,56.00
2023-01-01T15:40:34.017Z,56.10
2023-01-01T15:43:25.579Z,56.20
2023-01-01T15:46:05.664Z,56.20
2023-01-01T15:48:49.490Z,56.20
2023-01-01T15:51:20.707Z,56.10
2023-01-01T15:53:57.555Z,56.20
2023-01-01T15:56:28.945Z,56.30
2023-01-01T15:59:07.135Z,56.20
2023-01-01T16:01:43.361Z,56.20
2023-01-01T16:04:29.222Z,56.10
2023-01-01T16:06:59.849Z,56.40
2023-01-01T16:09:29.110Z,56.50
2023-01-01T16:11:59.610Z,56.40
2023-01-01T16:14:28.808Z,56.30
2023-01-01T16:17:02.096Z,56.30
2023-01-01T16:19:32.694Z,56.40
2023-01-01T16:22:01.657Z,56.50
2023-01-01T16:24:30.887Z,56.60
2023-01-01T16:27:00.066Z,56.50
2023-01-01T16:29:31.136Z,56.50
2023-01-01T16:32:01.693Z,56.50
2023-01-01T16:34:30.813Z,56.50
2023-01-01T16:37:00.025Z,56.50
2023-01-01T16:39:29.189Z,56.50
2023-01-01T16:41:58.855Z,56.50
2023-01-01T16:44:28.197Z,56.60
2023-01-01T16:46:57.378Z,56.60
2023-01-01T16:49:27.834Z,56.60
2023-01-01T16:51:57.405Z,56.60
2023-01-01T16:54:26.826Z,56.50
2023-01-01T16:56:56.072Z,56.60
2023-01-01T16:59:26.726Z,56.60
2023-01-01T17:01:56.462Z,56.70
2023-01-01T17:04:28.017Z,56.60
2023-01-01T17:06:57.367Z,56.70
2023-01-01T17:09:26.849Z,56.70
2023-01-01T17:12:01.996Z,56.70
2023-01-01T17:14:31.814Z,56.80
2023-01-01T17:17:01.085Z,56.80
2023-01-01T17:19:31.561Z,56.80
2023-01-01T17:22:00.961Z,56.80
2023-01-01T17:24:30.521Z,56.90
2023-01-01T17:27:00.171Z,56.90
2023-01-01T17:29:29.461Z,56.90
2023-01-01T17:31:59.080Z,56.90
2023-01-01T17:34:28.532Z,56.80
2023-01-01T17:36:59.118Z,56.90
2023-01-01T17:39:28.099Z,56.90
2023-01-01T17:41:57.983Z,56.80
2023-01-01T17:44:27.138Z,57.00
2023-01-01T17:46:55.981Z,56.90
2023-01-01T17:49:25.661Z,57.00
2023-01-01T17:51:54.896Z,56.90
2023-01-01T17:54:25.779Z,57.00
2023-01-01T17:56:58.184Z,57.00
2023-01-01T17:59:27.819Z,56.90
2023-01-01T18:01:57.722Z,56.90
2023-01-01T18:04:27.588Z,57.00
2023-01-01T18:06:59.631Z,56.90
2023-01-01T18:09:33.048Z,57.00
2023-01-01T18:12:02.167Z,57.00
2023-01-01T18:14:31.763Z,56.90
2023-01-01T18:17:01.391Z,56.90
2023-01-01T18:19:32.331Z,57.00
2023-01-01T18:22:01.814Z,57.10
2023-01-01T18:24:35.827Z,57.00
2023-01-01T18:27:05.329Z,57.20
2023-01-01T18:29:34.448Z,57.10
2023-01-01T18:32:04.454Z,57.10
2023-01-01T18:34:33.670Z,57.10
2023-01-01T18:37:02.904Z,57.00
2023-01-01T18:39:35.730Z,57.00
2023-01-01T18:42:35.079Z,57.00
2023-01-01T18:45:15.843Z,57.20
2023-01-01T18:47:46.350Z,57.20
2023-01-01T18:50:26.579Z,57.00
2023-01-01T18:53:02.753Z,57.20
2023-01-01T18:55:33.250Z,57.20
2023-01-01T18:58:17.376Z,57.30
2023-01-01T19:00:46.719Z,57.60
2023-01-01T19:03:18.952Z,57.60
2023-01-01T19:05:48.625Z,57.60
2023-01-01T19:08:21.139Z,57.90
2023-01-01T19:10:53.886Z,58.00
2023-01-01T19:13:26.291Z,58.20
2023-01-01T19:15:58.662Z,58.00
2023-01-01T19:18:32.996Z,58.40
2023-01-01T19:21:13.177Z,58.60
2023-01-01T19:23:48.878Z,59.00
2023-01-01T19:26:27.196Z,59.20
2023-01-01T19:28:58.279Z,59.40
2023-01-01T19:31:27.671Z,59.60
2023-01-01T19:33:58.244Z,59.70
2023-01-01T19:36:27.583Z,59.80
2023-01-01T19:38:57.696Z,60.10
2023-01-01T19:41:28.401Z,60.30
2023-01-01T19:43:57.744Z,60.50
2023-01-01T19:46:27.672Z,60.60
2023-01-01T19:48:57.880Z,60.80
2023-01-01T19:51:27.486Z,61.00
2023-01-01T19:53:57.103Z,61.10
2023-01-01T19:56:27.928Z,61.20
2023-01-01T19:58:57.099Z,61.50
2023-01-01T20:01:26.850Z,61.50
2023-01-01T20:03:57.851Z,61.60
2023-01-01T20:06:27.798Z,61.80
2023-01-01T20:09:00.322Z,61.90
2023-01-01T20:11:32.200Z,62.00
2023-01-01T20:14:01.246Z,62.20
2023-01-01T20:16:31.767Z,62.20
2023-01-01T20:19:01.119Z,62.30
2023-01-01T20:21:47.631Z,62.60
2023-01-01T20:24:17.566Z,62.50
2023-01-01T20:26:48.398Z,62.50
2023-01-01T20:29:20.544Z,62.60
2023-01-01T20:31:51.686Z,62.60
2023-01-01T20:34:21.418Z,62.60
2023-01-01T20:37:08.064Z,62.70
2023-01-01T20:39:40.701Z,62.70
2023-01-01T20:42:11.266Z,62.60
2023-01-01T20:44:42.720Z,62.70
2023-01-01T20:47:16.880Z,62.40
2023-01-01T20:49:47.478Z,62.60
2023-01-01T20:52:18.157Z,62.70
2023-01-01T20:54:47.323Z,62.60
2023-01-01T20:57:18.166Z,62.60
2023-01-01T20:59:47.365Z,62.60
2023-01-01T21:02:16.538Z,62.80
2023-01-01T21:04:46.106Z,62.80
2023-01-01T21:07:15.169Z,62.80
2023-01-01T21:09:44.641Z,62.80
2023-01-01T21:12:13.926Z,62.90
2023-01-01T21:14:44.430Z,62.90
2023-01-01T21:17:21.359Z,62.90
2023-01-01T21:19:52.596Z,63.10
2023-01-01T21:22:22.404Z,63.00
2023-01-01T21:24:55.338Z,62.80
2023-01-01T21:27:31.551Z,63.10
2023-01-01T21:30:03.340Z,63.10
2023-01-01T21:32:38.471Z,63.30
2023-01-01T21:35:19.824Z,63.40
2023-01-01T21:37:50.930Z,63.40
2023-01-01T21:40:39.972Z,63.40
2023-01-01T21:43:26.958Z,63.70
2023-01-01T21:46:01.316Z,63.70
2023-01-01T21:48:32.353Z,63.70
2023-01-01T21:51:02.261Z,63.70
2023-01-01T21:53:34.314Z,63.80
2023-01-01T21:56:16.899Z,63.70
2023-01-01T21:59:04.345Z,63.60
2023-01-01T22:01:40.314Z,63.70
2023-01-01T22:04:21.827Z,63.90
2023-01-01T22:06:54.556Z,64.10
2023-01-01T22:09:26.292Z,63.90
2023-01-01T22:11:59.742Z,63.90
2023-01-01T22:14:38.039Z,64.00
2023-01-01T22:17:15.778Z,64.10
2023-01-01T22:19:46.252Z,63.90
2023-01-01T22:22:16.740Z,63.90
2023-01-01T22:24:51.456Z,63.90
2023-01-01T22:27:38.603Z,64.50
2023-01-01T22:30:36.489Z,64.00
2023-01-01T22:33:17.457Z,63.90
2023-01-01T22:35:50.405Z,63.90
2023-01-01T22:38:23.399Z,63.50
2023-01-01T22:40:53.519Z,63.70
2023-01-01T22:43:28.795Z,63.50
2023-01-01T22:45:58.991Z,63.60
2023-01-01T22:48:36.734Z,63.50
2023-01-01T22:51:09.193Z,63.60
2023-01-01T22:53:38.930Z,63.70
2023-01-01T22:56:09.967Z,63.40
2023-01-01T22:58:39.128Z,63.40
2023-01-01T23:01:08.461Z,63.20
2023-01-01T23:03:39.155Z,63.20
2023-01-01T23:06:08.393Z,63.20
2023-01-01T23:08:37.819Z,63.60
2023-01-01T23:11:07.619Z,63.60
2023-01-01T23:13:54.435Z,63.50
2023-01-01T23:16:24.462Z,63.30
2023-01-01T23:18:55.544Z,63.50
2023-01-01T23:21:27.353Z,63.70
2023-01-01T23:23:58.592Z,63.70
2023-01-01T23:26:28.165Z,63.70
2023-01-01T23:28:57.438Z,63.50
2023-01-01T23:31:28.499Z,63.50
2023-01-01T23:34:00.246Z,63.60
2023-01-01T23:36:30.359Z,63.60
2023-01-01T23:39:00.016Z,63.60
2023-01-01T23:41:29.296Z,63.40
2023-01-01T23:43:58.429Z,63.40
2023-01-01T23:46:33.031Z,63.50
2023-01-01T23:49:06.721Z,63.50
2023-01-01T23:51:36.528Z,63.60
2023-01-01T23:54:12.683Z,63.70
2023-01-01T23:56:41.767Z,63.90
2023-01-01T23:59:16.590Z,63.80
